Terminal Aerodrome Forecast
Issued by NWS

Home | Current Version | Previous Version | Text Only | Print | Product List | Glossary On
Versions: 1 2 3 4 5 6 7 8 9 10 11 12 13 14
000
FTUS46 KPDT 040530
TAFBDN
TAF
KBDN 040530Z 0406/0506 VRB04KT P6SM SCT070
     FM041200 VRB03KT P6SM VCSH BKN040 BKN100
     FM041900 34012G20KT P6SM VCSH OVC040
     FM050200 33010KT P6SM -SHRA OVC030=

USA.gov is the U.S. government's official web portal to all federal, state and local government web resources and services.